sensor_id;sensor_type;location;lat;lon;timestamp;temperature;humidity
48998;DHT22;34807;51.456;7.244;2024-03-17T00:01:35;7.80;99.90
48998;DHT22;34807;51.456;7.244;2024-03-17T00:04:01;7.80;99.90
48998;DHT22;34807;51.456;7.244;2024-03-17T00:06:26;7.80;99.90
48998;DHT22;34807;51.456;7.244;2024-03-17T00:08:52;7.80;99.90
48998;DHT22;34807;51.456;7.244;2024-03-17T00:11:17;7.70;99.90
48998;DHT22;34807;51.456;7.244;2024-03-17T00:13:43;7.70;99.90
48998;DHT22;34807;51.456;7.244;2024-03-17T00:16:08;7.70;99.90
48998;DHT22;34807;51.456;7.244;2024-03-17T00:18:35;7.70;99.90
48998;DHT22;34807;51.456;7.244;2024-03-17T00:21:01;7.70;99.90
48998;DHT22;34807;51.456;7.244;2024-03-17T00:23:27;7.70;99.90
48998;DHT22;34807;51.456;7.244;2024-03-17T00:25:54;7.70;99.90
48998;DHT22;34807;51.456;7.244;2024-03-17T00:28:20;7.70;99.90
48998;DHT22;34807;51.456;7.244;2024-03-17T00:30:46;7.60;99.90
48998;DHT22;34807;51.456;7.244;2024-03-17T00:33:11;7.60;99.90
48998;DHT22;34807;51.456;7.244;2024-03-17T00:35:37;7.60;99.90
48998;DHT22;34807;51.456;7.244;2024-03-17T00:38:02;7.60;99.90
48998;DHT22;34807;51.456;7.244;2024-03-17T00:40:36;7.60;99.90
48998;DHT22;34807;51.456;7.244;2024-03-17T00:43:01;7.60;99.90
48998;DHT22;34807;51.456;7.244;2024-03-17T00:45:27;7.50;99.90
48998;DHT22;34807;51.456;7.244;2024-03-17T00:47:52;7.50;99.90
48998;DHT22;34807;51.456;7.244;2024-03-17T00:50:18;7.50;99.90
48998;DHT22;34807;51.456;7.244;2024-03-17T00:52:43;7.50;99.90
48998;DHT22;34807;51.456;7.244;2024-03-17T00:55:09;7.50;99.90
48998;DHT22;34807;51.456;7.244;2024-03-17T00:57:35;7.50;99.90
48998;DHT22;34807;51.456;7.244;2024-03-17T01:00:02;7.50;99.90
48998;DHT22;34807;51.456;7.244;2024-03-17T01:02:28;7.40;99.90
48998;DHT22;34807;51.456;7.244;2024-03-17T01:04:54;7.40;99.90
48998;DHT22;34807;51.456;7.244;2024-03-17T01:07:19;7.40;99.90
48998;DHT22;34807;51.456;7.244;2024-03-17T01:09:46;7.40;99.90
48998;DHT22;34807;51.456;7.244;2024-03-17T01:12:12;7.40;99.90
48998;DHT22;34807;51.456;7.244;2024-03-17T01:14:37;7.40;99.90
48998;DHT22;34807;51.456;7.244;2024-03-17T01:17:03;7.30;99.90
48998;DHT22;34807;51.456;7.244;2024-03-17T01:19:31;7.30;99.90
48998;DHT22;34807;51.456;7.244;2024-03-17T01:21:57;7.30;99.90
48998;DHT22;34807;51.456;7.244;2024-03-17T01:24:24;7.30;99.90
48998;DHT22;34807;51.456;7.244;2024-03-17T01:26:50;7.30;99.90
48998;DHT22;34807;51.456;7.244;2024-03-17T01:29:15;7.20;99.90
48998;DHT22;34807;51.456;7.244;2024-03-17T01:31:41;7.30;99.90
48998;DHT22;34807;51.456;7.244;2024-03-17T01:34:06;7.20;99.90
48998;DHT22;34807;51.456;7.244;2024-03-17T01:36:32;7.20;99.90
48998;DHT22;34807;51.456;7.244;2024-03-17T01:38:57;7.20;99.90
48998;DHT22;34807;51.456;7.244;2024-03-17T01:41:23;7.20;99.90
48998;DHT22;34807;51.456;7.244;2024-03-17T01:43:49;7.20;99.90
48998;DHT22;34807;51.456;7.244;2024-03-17T01:46:15;7.10;99.90
48998;DHT22;34807;51.456;7.244;2024-03-17T01:48:42;7.10;99.90
48998;DHT22;34807;51.456;7.244;2024-03-17T01:51:08;7.10;99.90
48998;DHT22;34807;51.456;7.244;2024-03-17T01:53:35;7.10;99.90
48998;DHT22;34807;51.456;7.244;2024-03-17T01:56:02;7.10;99.90
48998;DHT22;34807;51.456;7.244;2024-03-17T01:58:29;7.10;99.90
48998;DHT22;34807;51.456;7.244;2024-03-17T02:00:55;7.10;99.90
48998;DHT22;34807;51.456;7.244;2024-03-17T02:03:21;7.00;99.90
48998;DHT22;34807;51.456;7.244;2024-03-17T02:05:47;7.00;99.90
48998;DHT22;34807;51.456;7.244;2024-03-17T02:08:13;7.00;99.90
48998;DHT22;34807;51.456;7.244;2024-03-17T02:10:38;7.00;99.90
48998;DHT22;34807;51.456;7.244;2024-03-17T02:13:04;7.00;99.90
48998;DHT22;34807;51.456;7.244;2024-03-17T02:15:31;7.00;99.90
48998;DHT22;34807;51.456;7.244;2024-03-17T02:17:56;7.00;99.90
48998;DHT22;34807;51.456;7.244;2024-03-17T02:20:22;7.00;99.90
48998;DHT22;34807;51.456;7.244;2024-03-17T02:23:07;6.90;99.90
48998;DHT22;34807;51.456;7.244;2024-03-17T02:25:33;6.90;99.90
48998;DHT22;34807;51.456;7.244;2024-03-17T02:27:59;6.90;99.90
48998;DHT22;34807;51.456;7.244;2024-03-17T02:30:24;6.90;99.90
48998;DHT22;34807;51.456;7.244;2024-03-17T02:32:53;6.90;99.90
48998;DHT22;34807;51.456;7.244;2024-03-17T02:35:19;6.90;99.90
48998;DHT22;34807;51.456;7.244;2024-03-17T02:37:44;6.80;99.90
48998;DHT22;34807;51.456;7.244;2024-03-17T02:40:10;6.90;99.90
48998;DHT22;34807;51.456;7.244;2024-03-17T02:42:36;6.90;99.90
48998;DHT22;34807;51.456;7.244;2024-03-17T02:45:03;6.80;99.90
48998;DHT22;34807;51.456;7.244;2024-03-17T02:47:29;6.80;99.90
48998;DHT22;34807;51.456;7.244;2024-03-17T02:49:55;6.80;99.90
48998;DHT22;34807;51.456;7.244;2024-03-17T02:52:20;6.80;99.90
48998;DHT22;34807;51.456;7.244;2024-03-17T02:54:46;6.80;99.90
48998;DHT22;34807;51.456;7.244;2024-03-17T02:57:12;6.80;99.90
48998;DHT22;34807;51.456;7.244;2024-03-17T02:59:37;6.80;99.90
48998;DHT22;34807;51.456;7.244;2024-03-17T03:02:03;6.80;99.90
48998;DHT22;34807;51.456;7.244;2024-03-17T03:04:29;6.80;99.90
48998;DHT22;34807;51.456;7.244;2024-03-17T03:06:55;6.80;99.90
48998;DHT22;34807;51.456;7.244;2024-03-17T03:09:21;6.80;99.90
48998;DHT22;34807;51.456;7.244;2024-03-17T03:11:56;6.70;99.90
48998;DHT22;34807;51.456;7.244;2024-03-17T03:14:21;6.70;99.90
48998;DHT22;34807;51.456;7.244;2024-03-17T03:16:47;6.70;99.90
48998;DHT22;34807;51.456;7.244;2024-03-17T03:19:12;6.70;99.90
48998;DHT22;34807;51.456;7.244;2024-03-17T03:21:38;6.70;99.90
48998;DHT22;34807;51.456;7.244;2024-03-17T03:24:03;6.70;99.90
48998;DHT22;34807;51.456;7.244;2024-03-17T03:26:29;6.70;99.90
48998;DHT22;34807;51.456;7.244;2024-03-17T03:28:54;6.70;99.90
48998;DHT22;34807;51.456;7.244;2024-03-17T03:31:20;6.70;99.90
48998;DHT22;34807;51.456;7.244;2024-03-17T03:33:47;6.70;99.90
48998;DHT22;34807;51.456;7.244;2024-03-17T03:36:13;6.60;99.90
48998;DHT22;34807;51.456;7.244;2024-03-17T03:38:39;6.70;99.90
48998;DHT22;34807;51.456;7.244;2024-03-17T03:41:13;6.70;99.90
48998;DHT22;34807;51.456;7.244;2024-03-17T03:43:39;6.70;99.90
48998;DHT22;34807;51.456;7.244;2024-03-17T03:46:04;6.60;99.90
48998;DHT22;34807;51.456;7.244;2024-03-17T03:48:31;6.60;99.90
48998;DHT22;34807;51.456;7.244;2024-03-17T03:50:56;6.60;99.90
48998;DHT22;34807;51.456;7.244;2024-03-17T03:53:22;6.60;99.90
48998;DHT22;34807;51.456;7.244;2024-03-17T03:55:48;6.60;99.90
48998;DHT22;34807;51.456;7.244;2024-03-17T03:58:14;6.60;99.90
48998;DHT22;34807;51.456;7.244;2024-03-17T04:00:40;6.60;99.90
48998;DHT22;34807;51.456;7.244;2024-03-17T04:03:05;6.60;99.90
48998;DHT22;34807;51.456;7.244;2024-03-17T04:05:31;6.60;99.90
48998;DHT22;34807;51.456;7.244;2024-03-17T04:07:57;6.60;99.90
48998;DHT22;34807;51.456;7.244;2024-03-17T04:10:23;6.60;99.90
48998;DHT22;34807;51.456;7.244;2024-03-17T04:12:50;6.60;99.90
48998;DHT22;34807;51.456;7.244;2024-03-17T04:15:15;6.60;99.90
48998;DHT22;34807;51.456;7.244;2024-03-17T04:17:41;6.60;99.90
48998;DHT22;34807;51.456;7.244;2024-03-17T04:20:07;6.50;99.90
48998;DHT22;34807;51.456;7.244;2024-03-17T04:22:34;6.50;99.90
48998;DHT22;34807;51.456;7.244;2024-03-17T04:25:00;6.50;99.90
48998;DHT22;34807;51.456;7.244;2024-03-17T04:27:26;6.50;99.90
48998;DHT22;34807;51.456;7.244;2024-03-17T04:29:52;6.50;99.90
48998;DHT22;34807;51.456;7.244;2024-03-17T04:32:17;6.50;99.90
48998;DHT22;34807;51.456;7.244;2024-03-17T04:34:43;6.50;99.90
48998;DHT22;34807;51.456;7.244;2024-03-17T04:37:11;6.50;99.90
48998;DHT22;34807;51.456;7.244;2024-03-17T04:39:38;6.50;99.90
48998;DHT22;34807;51.456;7.244;2024-03-17T04:42:04;6.40;99.90
48998;DHT22;34807;51.456;7.244;2024-03-17T04:44:29;6.50;99.90
48998;DHT22;34807;51.456;7.244;2024-03-17T04:46:55;6.50;99.90
48998;DHT22;34807;51.456;7.244;2024-03-17T04:49:20;6.50;99.90
48998;DHT22;34807;51.456;7.244;2024-03-17T04:51:46;6.50;99.90
48998;DHT22;34807;51.456;7.244;2024-03-17T04:54:11;6.50;99.90
48998;DHT22;34807;51.456;7.244;2024-03-17T04:56:37;6.50;99.90
48998;DHT22;34807;51.456;7.244;2024-03-17T04:59:03;6.50;99.90
48998;DHT22;34807;51.456;7.244;2024-03-17T05:01:28;6.50;99.90
48998;DHT22;34807;51.456;7.244;2024-03-17T05:03:56;6.40;99.90
48998;DHT22;34807;51.456;7.244;2024-03-17T05:06:22;6.50;99.90
48998;DHT22;34807;51.456;7.244;2024-03-17T05:08:47;6.40;99.90
48998;DHT22;34807;51.456;7.244;2024-03-17T05:11:13;6.40;99.90
48998;DHT22;34807;51.456;7.244;2024-03-17T05:13:41;6.40;99.90
48998;DHT22;34807;51.456;7.244;2024-03-17T05:16:06;6.40;99.90
48998;DHT22;34807;51.456;7.244;2024-03-17T05:18:32;6.40;99.90
48998;DHT22;34807;51.456;7.244;2024-03-17T05:21:05;6.40;99.90
48998;DHT22;34807;51.456;7.244;2024-03-17T05:23:31;6.40;99.90
48998;DHT22;34807;51.456;7.244;2024-03-17T05:25:57;6.40;99.90
48998;DHT22;34807;51.456;7.244;2024-03-17T05:28:26;6.40;99.90
48998;DHT22;34807;51.456;7.244;2024-03-17T05:30:52;6.40;99.90
48998;DHT22;34807;51.456;7.244;2024-03-17T05:33:18;6.40;99.90
48998;DHT22;34807;51.456;7.244;2024-03-17T05:35:50;6.40;99.90
48998;DHT22;34807;51.456;7.244;2024-03-17T05:38:24;6.40;99.90
48998;DHT22;34807;51.456;7.244;2024-03-17T05:41:01;6.40;99.90
48998;DHT22;34807;51.456;7.244;2024-03-17T05:43:27;6.40;99.90
48998;DHT22;34807;51.456;7.244;2024-03-17T05:45:53;6.40;99.90
48998;DHT22;34807;51.456;7.244;2024-03-17T05:48:19;6.40;99.90
48998;DHT22;34807;51.456;7.244;2024-03-17T05:50:44;6.30;99.90
48998;DHT22;34807;51.456;7.244;2024-03-17T05:53:10;6.30;99.90
48998;DHT22;34807;51.456;7.244;2024-03-17T05:55:36;6.40;99.90
48998;DHT22;34807;51.456;7.244;2024-03-17T05:58:02;6.30;99.90
48998;DHT22;34807;51.456;7.244;2024-03-17T06:00:27;6.30;99.90
48998;DHT22;34807;51.456;7.244;2024-03-17T06:02:53;6.30;99.90
48998;DHT22;34807;51.456;7.244;2024-03-17T06:05:18;6.30;99.90
48998;DHT22;34807;51.456;7.244;2024-03-17T06:07:44;6.30;99.90
48998;DHT22;34807;51.456;7.244;2024-03-17T06:10:09;6.30;99.90
48998;DHT22;34807;51.456;7.244;2024-03-17T06:12:35;6.30;99.90
48998;DHT22;34807;51.456;7.244;2024-03-17T06:15:02;6.30;99.90
48998;DHT22;34807;51.456;7.244;2024-03-17T06:17:27;6.30;99.90
48998;DHT22;34807;51.456;7.244;2024-03-17T06:19:53;6.30;99.90
48998;DHT22;34807;51.456;7.244;2024-03-17T06:22:18;6.40;99.90
48998;DHT22;34807;51.456;7.244;2024-03-17T06:24:44;6.40;99.90
48998;DHT22;34807;51.456;7.244;2024-03-17T06:27:09;6.40;99.90
48998;DHT22;34807;51.456;7.244;2024-03-17T06:29:35;6.40;99.90
48998;DHT22;34807;51.456;7.244;2024-03-17T06:32:00;6.40;99.90
48998;DHT22;34807;51.456;7.244;2024-03-17T06:34:26;6.30;99.90
48998;DHT22;34807;51.456;7.244;2024-03-17T06:36:51;6.40;99.90
48998;DHT22;34807;51.456;7.244;2024-03-17T06:39:17;6.40;99.90
48998;DHT22;34807;51.456;7.244;2024-03-17T06:41:45;6.40;99.90
48998;DHT22;34807;51.456;7.244;2024-03-17T06:44:10;6.40;99.90
48998;DHT22;34807;51.456;7.244;2024-03-17T06:46:36;6.40;99.90
48998;DHT22;34807;51.456;7.244;2024-03-17T06:49:01;6.40;99.90
48998;DHT22;34807;51.456;7.244;2024-03-17T06:51:27;6.40;99.90
48998;DHT22;34807;51.456;7.244;2024-03-17T06:53:52;6.40;99.90
48998;DHT22;34807;51.456;7.244;2024-03-17T06:56:18;6.40;99.90
48998;DHT22;34807;51.456;7.244;2024-03-17T06:58:43;6.40;99.90
48998;DHT22;34807;51.456;7.244;2024-03-17T07:01:09;6.40;99.90
48998;DHT22;34807;51.456;7.244;2024-03-17T07:03:34;6.40;99.90
48998;DHT22;34807;51.456;7.244;2024-03-17T07:06:00;6.40;99.90
48998;DHT22;34807;51.456;7.244;2024-03-17T07:08:30;6.40;99.90
48998;DHT22;34807;51.456;7.244;2024-03-17T07:13:21;6.50;99.90
48998;DHT22;34807;51.456;7.244;2024-03-17T07:15:47;6.50;99.90
48998;DHT22;34807;51.456;7.244;2024-03-17T07:18:12;6.50;99.90
48998;DHT22;34807;51.456;7.244;2024-03-17T07:20:38;6.50;99.90
48998;DHT22;34807;51.456;7.244;2024-03-17T07:23:04;6.50;99.90
48998;DHT22;34807;51.456;7.244;2024-03-17T07:25:30;6.50;99.90
48998;DHT22;34807;51.456;7.244;2024-03-17T07:27:55;6.60;99.90
48998;DHT22;34807;51.456;7.244;2024-03-17T07:30:21;6.60;99.90
48998;DHT22;34807;51.456;7.244;2024-03-17T07:32:47;6.60;99.90
48998;DHT22;34807;51.456;7.244;2024-03-17T07:35:12;6.60;99.90
48998;DHT22;34807;51.456;7.244;2024-03-17T07:37:39;6.70;99.90
48998;DHT22;34807;51.456;7.244;2024-03-17T07:40:05;6.70;99.90
48998;DHT22;34807;51.456;7.244;2024-03-17T07:42:32;6.70;99.90
48998;DHT22;34807;51.456;7.244;2024-03-17T07:44:58;6.80;99.90
48998;DHT22;34807;51.456;7.244;2024-03-17T07:47:23;6.90;99.90
48998;DHT22;34807;51.456;7.244;2024-03-17T07:49:49;6.90;99.90
48998;DHT22;34807;51.456;7.244;2024-03-17T07:52:14;6.90;99.90
48998;DHT22;34807;51.456;7.244;2024-03-17T07:54:41;7.00;99.90
48998;DHT22;34807;51.456;7.244;2024-03-17T07:57:06;7.00;99.90
48998;DHT22;34807;51.456;7.244;2024-03-17T07:59:34;7.10;99.90
48998;DHT22;34807;51.456;7.244;2024-03-17T08:01:59;7.10;99.90
48998;DHT22;34807;51.456;7.244;2024-03-17T08:04:25;7.20;99.90
48998;DHT22;34807;51.456;7.244;2024-03-17T08:06:50;7.30;99.90
48998;DHT22;34807;51.456;7.244;2024-03-17T08:09:16;7.30;99.90
48998;DHT22;34807;51.456;7.244;2024-03-17T08:11:43;7.40;99.90
48998;DHT22;34807;51.456;7.244;2024-03-17T08:14:12;7.50;99.90
48998;DHT22;34807;51.456;7.244;2024-03-17T08:16:38;7.60;99.90
48998;DHT22;34807;51.456;7.244;2024-03-17T08:19:03;7.60;99.90
48998;DHT22;34807;51.456;7.244;2024-03-17T08:21:29;7.70;99.90
48998;DHT22;34807;51.456;7.244;2024-03-17T08:23:55;7.80;99.90
48998;DHT22;34807;51.456;7.244;2024-03-17T08:26:20;7.90;99.90
48998;DHT22;34807;51.456;7.244;2024-03-17T08:28:46;8.00;99.90
48998;DHT22;34807;51.456;7.244;2024-03-17T08:31:14;8.10;99.90
48998;DHT22;34807;51.456;7.244;2024-03-17T08:33:40;8.20;99.90
48998;DHT22;34807;51.456;7.244;2024-03-17T08:36:06;8.30;99.90
48998;DHT22;34807;51.456;7.244;2024-03-17T08:38:35;8.30;99.90
48998;DHT22;34807;51.456;7.244;2024-03-17T08:41:08;8.40;99.90
48998;DHT22;34807;51.456;7.244;2024-03-17T08:43:35;8.50;99.90
48998;DHT22;34807;51.456;7.244;2024-03-17T08:46:04;8.50;99.90
48998;DHT22;34807;51.456;7.244;2024-03-17T08:48:32;8.60;99.90
48998;DHT22;34807;51.456;7.244;2024-03-17T08:50:58;8.60;99.90
48998;DHT22;34807;51.456;7.244;2024-03-17T08:53:24;8.70;99.90
48998;DHT22;34807;51.456;7.244;2024-03-17T08:55:49;8.70;99.90
48998;DHT22;34807;51.456;7.244;2024-03-17T08:58:15;8.70;99.90
48998;DHT22;34807;51.456;7.244;2024-03-17T09:00:41;8.80;99.90
48998;DHT22;34807;51.456;7.244;2024-03-17T09:03:07;8.80;99.90
48998;DHT22;34807;51.456;7.244;2024-03-17T09:05:36;8.90;99.90
48998;DHT22;34807;51.456;7.244;2024-03-17T09:08:01;8.90;99.90
48998;DHT22;34807;51.456;7.244;2024-03-17T09:10:27;8.90;99.90
48998;DHT22;34807;51.456;7.244;2024-03-17T09:12:53;9.00;99.90
48998;DHT22;34807;51.456;7.244;2024-03-17T09:15:19;9.00;99.90
48998;DHT22;34807;51.456;7.244;2024-03-17T09:17:46;9.10;99.90
48998;DHT22;34807;51.456;7.244;2024-03-17T09:20:11;9.10;99.90
48998;DHT22;34807;51.456;7.244;2024-03-17T09:22:38;9.20;99.90
48998;DHT22;34807;51.456;7.244;2024-03-17T09:25:07;9.20;99.90
48998;DHT22;34807;51.456;7.244;2024-03-17T09:27:33;9.20;99.90
48998;DHT22;34807;51.456;7.244;2024-03-17T09:29:59;9.30;99.90
48998;DHT22;34807;51.456;7.244;2024-03-17T09:32:25;9.30;99.90
48998;DHT22;34807;51.456;7.244;2024-03-17T09:34:50;9.40;99.90
48998;DHT22;34807;51.456;7.244;2024-03-17T09:37:16;9.40;99.90
48998;DHT22;34807;51.456;7.244;2024-03-17T09:39:42;9.40;99.90
48998;DHT22;34807;51.456;7.244;2024-03-17T09:42:15;9.40;99.90
48998;DHT22;34807;51.456;7.244;2024-03-17T09:44:41;9.50;99.90
48998;DHT22;34807;51.456;7.244;2024-03-17T09:47:08;9.50;99.90
48998;DHT22;34807;51.456;7.244;2024-03-17T09:49:39;9.50;99.90
48998;DHT22;34807;51.456;7.244;2024-03-17T09:52:05;9.60;99.90
48998;DHT22;34807;51.456;7.244;2024-03-17T09:54:33;9.60;99.90
48998;DHT22;34807;51.456;7.244;2024-03-17T09:56:59;9.60;99.90
48998;DHT22;34807;51.456;7.244;2024-03-17T09:59:24;9.70;99.90
48998;DHT22;34807;51.456;7.244;2024-03-17T10:01:50;9.70;99.90
48998;DHT22;34807;51.456;7.244;2024-03-17T10:04:30;9.80;99.90
48998;DHT22;34807;51.456;7.244;2024-03-17T10:06:56;9.80;99.90
48998;DHT22;34807;51.456;7.244;2024-03-17T10:09:21;9.90;99.90
48998;DHT22;34807;51.456;7.244;2024-03-17T10:11:47;9.90;99.90
48998;DHT22;34807;51.456;7.244;2024-03-17T10:14:14;10.00;99.90
48998;DHT22;34807;51.456;7.244;2024-03-17T10:16:41;10.00;99.90
48998;DHT22;34807;51.456;7.244;2024-03-17T10:19:16;10.10;99.90
48998;DHT22;34807;51.456;7.244;2024-03-17T10:21:46;10.10;99.90
48998;DHT22;34807;51.456;7.244;2024-03-17T10:29:22;10.20;99.90
48998;DHT22;34807;51.456;7.244;2024-03-17T10:32:12;10.20;99.90
48998;DHT22;34807;51.456;7.244;2024-03-17T10:34:38;10.30;99.90
48998;DHT22;34807;51.456;7.244;2024-03-17T10:39:32;10.40;99.90
48998;DHT22;34807;51.456;7.244;2024-03-17T10:42:00;10.50;99.90
48998;DHT22;34807;51.456;7.244;2024-03-17T10:44:26;10.50;99.90
48998;DHT22;34807;51.456;7.244;2024-03-17T10:46:54;10.50;99.90
48998;DHT22;34807;51.456;7.244;2024-03-17T10:49:21;10.60;99.90
48998;DHT22;34807;51.456;7.244;2024-03-17T10:51:46;10.70;99.90
48998;DHT22;34807;51.456;7.244;2024-03-17T10:54:17;10.70;99.90
48998;DHT22;34807;51.456;7.244;2024-03-17T10:56:47;10.80;99.90
48998;DHT22;34807;51.456;7.244;2024-03-17T10:59:12;10.90;99.90
48998;DHT22;34807;51.456;7.244;2024-03-17T11:01:38;10.90;99.90
48998;DHT22;34807;51.456;7.244;2024-03-17T11:04:05;11.00;99.90
48998;DHT22;34807;51.456;7.244;2024-03-17T11:06:33;11.10;99.90
48998;DHT22;34807;51.456;7.244;2024-03-17T11:08:59;11.10;99.90
48998;DHT22;34807;51.456;7.244;2024-03-17T11:11:37;11.20;99.90
48998;DHT22;34807;51.456;7.244;2024-03-17T11:14:17;11.30;99.90
48998;DHT22;34807;51.456;7.244;2024-03-17T11:16:46;11.40;99.90
48998;DHT22;34807;51.456;7.244;2024-03-17T11:19:15;11.50;99.90
48998;DHT22;34807;51.456;7.244;2024-03-17T11:21:42;11.60;99.90
48998;DHT22;34807;51.456;7.244;2024-03-17T11:24:07;11.70;99.90
48998;DHT22;34807;51.456;7.244;2024-03-17T11:26:43;11.80;99.90
48998;DHT22;34807;51.456;7.244;2024-03-17T11:29:23;11.80;99.90
48998;DHT22;34807;51.456;7.244;2024-03-17T11:31:51;11.90;99.90
48998;DHT22;34807;51.456;7.244;2024-03-17T11:34:27;12.00;99.90
48998;DHT22;34807;51.456;7.244;2024-03-17T11:36:53;12.10;99.90
48998;DHT22;34807;51.456;7.244;2024-03-17T11:39:20;12.10;99.90
48998;DHT22;34807;51.456;7.244;2024-03-17T11:41:51;12.20;99.90
48998;DHT22;34807;51.456;7.244;2024-03-17T11:46:50;12.20;99.90
48998;DHT22;34807;51.456;7.244;2024-03-17T11:49:17;12.20;99.90
48998;DHT22;34807;51.456;7.244;2024-03-17T11:51:43;12.30;99.90
48998;DHT22;34807;51.456;7.244;2024-03-17T11:54:13;12.30;99.90
48998;DHT22;34807;51.456;7.244;2024-03-17T11:56:39;12.30;99.90
48998;DHT22;34807;51.456;7.244;2024-03-17T11:59:05;12.30;99.90
48998;DHT22;34807;51.456;7.244;2024-03-17T12:01:30;12.30;99.90
48998;DHT22;34807;51.456;7.244;2024-03-17T12:03:56;12.30;99.90
48998;DHT22;34807;51.456;7.244;2024-03-17T12:06:23;12.40;99.90
48998;DHT22;34807;51.456;7.244;2024-03-17T12:08:49;12.40;99.90
48998;DHT22;34807;51.456;7.244;2024-03-17T12:11:16;12.40;99.90
48998;DHT22;34807;51.456;7.244;2024-03-17T12:13:42;12.40;99.90
48998;DHT22;34807;51.456;7.244;2024-03-17T12:16:12;12.50;99.90
48998;DHT22;34807;51.456;7.244;2024-03-17T12:18:38;12.50;99.90
48998;DHT22;34807;51.456;7.244;2024-03-17T12:21:15;12.50;99.90
48998;DHT22;34807;51.456;7.244;2024-03-17T12:23:40;12.60;99.90
48998;DHT22;34807;51.456;7.244;2024-03-17T12:26:09;12.60;99.90
48998;DHT22;34807;51.456;7.244;2024-03-17T12:28:40;12.70;99.90
48998;DHT22;34807;51.456;7.244;2024-03-17T12:31:06;12.70;99.90
48998;DHT22;34807;51.456;7.244;2024-03-17T12:33:32;12.80;99.90
48998;DHT22;34807;51.456;7.244;2024-03-17T12:35:57;12.90;99.90
48998;DHT22;34807;51.456;7.244;2024-03-17T12:38:26;12.90;99.90
48998;DHT22;34807;51.456;7.244;2024-03-17T12:40:52;13.00;99.90
48998;DHT22;34807;51.456;7.244;2024-03-17T12:43:18;13.00;99.90
48998;DHT22;34807;51.456;7.244;2024-03-17T12:45:43;13.10;99.90
48998;DHT22;34807;51.456;7.244;2024-03-17T12:48:14;13.10;99.90
48998;DHT22;34807;51.456;7.244;2024-03-17T12:50:46;13.10;99.90
48998;DHT22;34807;51.456;7.244;2024-03-17T12:53:18;13.10;99.90
48998;DHT22;34807;51.456;7.244;2024-03-17T12:55:52;13.20;99.90
48998;DHT22;34807;51.456;7.244;2024-03-17T12:58:36;13.20;99.90
48998;DHT22;34807;51.456;7.244;2024-03-17T13:01:20;13.20;99.90
48998;DHT22;34807;51.456;7.244;2024-03-17T13:03:46;13.20;99.90
48998;DHT22;34807;51.456;7.244;2024-03-17T13:06:20;13.30;99.90
48998;DHT22;34807;51.456;7.244;2024-03-17T13:08:49;13.30;99.90
48998;DHT22;34807;51.456;7.244;2024-03-17T13:11:15;13.40;99.90
48998;DHT22;34807;51.456;7.244;2024-03-17T13:13:40;13.40;99.90
48998;DHT22;34807;51.456;7.244;2024-03-17T13:16:06;13.40;99.90
48998;DHT22;34807;51.456;7.244;2024-03-17T13:18:32;13.50;99.90
48998;DHT22;34807;51.456;7.244;2024-03-17T13:20:58;13.50;99.90
48998;DHT22;34807;51.456;7.244;2024-03-17T13:23:24;13.50;99.90
48998;DHT22;34807;51.456;7.244;2024-03-17T13:25:50;13.60;99.90
48998;DHT22;34807;51.456;7.244;2024-03-17T13:28:15;13.60;99.90
48998;DHT22;34807;51.456;7.244;2024-03-17T13:30:41;13.60;99.90
48998;DHT22;34807;51.456;7.244;2024-03-17T13:33:08;13.70;99.90
48998;DHT22;34807;51.456;7.244;2024-03-17T13:35:34;13.70;99.90
48998;DHT22;34807;51.456;7.244;2024-03-17T13:38:00;13.80;99.90
48998;DHT22;34807;51.456;7.244;2024-03-17T13:40:28;13.80;99.90
48998;DHT22;34807;51.456;7.244;2024-03-17T13:42:54;13.80;99.90
48998;DHT22;34807;51.456;7.244;2024-03-17T13:45:20;13.90;99.90
48998;DHT22;34807;51.456;7.244;2024-03-17T13:47:50;13.90;99.90
48998;DHT22;34807;51.456;7.244;2024-03-17T13:50:16;13.90;99.90
48998;DHT22;34807;51.456;7.244;2024-03-17T13:52:43;13.90;99.90
48998;DHT22;34807;51.456;7.244;2024-03-17T13:55:13;13.90;99.90
48998;DHT22;34807;51.456;7.244;2024-03-17T13:57:39;13.90;99.90
48998;DHT22;34807;51.456;7.244;2024-03-17T14:00:05;13.90;99.90
48998;DHT22;34807;51.456;7.244;2024-03-17T14:02:33;14.00;99.90
48998;DHT22;34807;51.456;7.244;2024-03-17T14:04:58;14.00;99.90
48998;DHT22;34807;51.456;7.244;2024-03-17T14:07:24;14.00;99.90
48998;DHT22;34807;51.456;7.244;2024-03-17T14:09:49;14.00;99.90
48998;DHT22;34807;51.456;7.244;2024-03-17T14:12:15;14.00;99.90
48998;DHT22;34807;51.456;7.244;2024-03-17T14:14:41;13.90;99.90
48998;DHT22;34807;51.456;7.244;2024-03-17T14:17:06;14.00;99.90
48998;DHT22;34807;51.456;7.244;2024-03-17T14:19:32;13.90;99.90
48998;DHT22;34807;51.456;7.244;2024-03-17T14:21:58;13.90;99.90
48998;DHT22;34807;51.456;7.244;2024-03-17T14:24:23;13.90;99.90
48998;DHT22;34807;51.456;7.244;2024-03-17T14:26:49;13.90;99.90
48998;DHT22;34807;51.456;7.244;2024-03-17T14:29:15;13.90;99.90
48998;DHT22;34807;51.456;7.244;2024-03-17T14:31:41;13.80;99.90
48998;DHT22;34807;51.456;7.244;2024-03-17T14:34:10;13.80;99.90
48998;DHT22;34807;51.456;7.244;2024-03-17T14:36:35;13.80;99.90
48998;DHT22;34807;51.456;7.244;2024-03-17T14:39:02;13.80;99.90
48998;DHT22;34807;51.456;7.244;2024-03-17T14:41:28;13.80;99.90
48998;DHT22;34807;51.456;7.244;2024-03-17T14:43:55;13.80;99.90
48998;DHT22;34807;51.456;7.244;2024-03-17T14:46:20;13.80;99.90
48998;DHT22;34807;51.456;7.244;2024-03-17T14:48:46;13.70;99.90
48998;DHT22;34807;51.456;7.244;2024-03-17T14:51:12;13.70;99.90
48998;DHT22;34807;51.456;7.244;2024-03-17T14:53:38;13.70;99.90
48998;DHT22;34807;51.456;7.244;2024-03-17T14:56:16;13.70;99.90
48998;DHT22;34807;51.456;7.244;2024-03-17T14:58:42;13.60;99.90
48998;DHT22;34807;51.456;7.244;2024-03-17T15:01:07;13.70;99.90
48998;DHT22;34807;51.456;7.244;2024-03-17T15:03:34;13.60;99.90
48998;DHT22;34807;51.456;7.244;2024-03-17T15:06:00;13.60;99.90
48998;DHT22;34807;51.456;7.244;2024-03-17T15:08:25;13.60;99.90
48998;DHT22;34807;51.456;7.244;2024-03-17T15:10:51;13.60;99.90
48998;DHT22;34807;51.456;7.244;2024-03-17T15:13:20;13.50;99.90
48998;DHT22;34807;51.456;7.244;2024-03-17T15:15:45;13.50;99.90
48998;DHT22;34807;51.456;7.244;2024-03-17T15:18:12;13.50;99.90
48998;DHT22;34807;51.456;7.244;2024-03-17T15:20:38;13.50;99.90
48998;DHT22;34807;51.456;7.244;2024-03-17T15:23:03;13.50;99.90
48998;DHT22;34807;51.456;7.244;2024-03-17T15:25:30;13.50;99.90
48998;DHT22;34807;51.456;7.244;2024-03-17T15:27:55;13.50;99.90
48998;DHT22;34807;51.456;7.244;2024-03-17T15:30:22;13.40;99.90
48998;DHT22;34807;51.456;7.244;2024-03-17T15:32:51;13.40;99.90
48998;DHT22;34807;51.456;7.244;2024-03-17T15:35:22;13.40;99.90
48998;DHT22;34807;51.456;7.244;2024-03-17T15:37:48;13.40;99.90
48998;DHT22;34807;51.456;7.244;2024-03-17T15:40:14;13.30;99.90
48998;DHT22;34807;51.456;7.244;2024-03-17T15:42:46;13.40;99.90
48998;DHT22;34807;51.456;7.244;2024-03-17T15:45:15;13.30;99.90
48998;DHT22;34807;51.456;7.244;2024-03-17T15:47:41;13.30;99.90
48998;DHT22;34807;51.456;7.244;2024-03-17T15:50:06;13.30;99.90